Terminal Aerodrome Forecast
Issued by NWS

Current Version | Previous Version | Text Only | Print | Product List | Glossary On
Versions: 1 2 3 4 5 6 7 8 9 10 11 12 13
000
FTUS42 KMLB 051725
TAFISM
TAF
KISM 051725Z 0518/0618 08014G21KT P6SM VCSH SCT035 BKN050 OVC060
     FM060000 07011KT P6SM SCT040 SCT250
     FM060300 03008KT P6SM FEW025 BKN080
     FM061200 36010KT P6SM FEW025 SCT050 BKN250=

USA.gov is the U.S. government's official web portal to all federal, state and local government web resources and services.